sensor_id;sensor_type;location;lat;lon;timestamp;pressure;altitude;pressure_sealevel;temperature;humidity
64835;BME280;51293;59.296;18.006;2022-12-16T00:01:23;100544.28;;;-13.77;91.99
64835;BME280;51293;59.296;18.006;2022-12-16T00:03:50;100534.97;;;-13.81;92.07
64835;BME280;51293;59.296;18.006;2022-12-16T00:06:16;100554.19;;;-13.84;92.51
64835;BME280;51293;59.296;18.006;2022-12-16T00:08:42;100550.81;;;-13.86;92.20
64835;BME280;51293;59.296;18.006;2022-12-16T00:11:08;100551.75;;;-13.87;92.34
64835;BME280;51293;59.296;18.006;2022-12-16T00:13:35;100560.13;;;-13.82;92.64
64835;BME280;51293;59.296;18.006;2022-12-16T00:16:06;100554.88;;;-13.80;92.59
64835;BME280;51293;59.296;18.006;2022-12-16T00:18:32;100556.50;;;-13.62;91.93
64835;BME280;51293;59.296;18.006;2022-12-16T00:20:58;100562.13;;;-13.70;92.08
64835;BME280;51293;59.296;18.006;2022-12-16T00:23:24;100557.56;;;-13.66;92.37
64835;BME280;51293;59.296;18.006;2022-12-16T00:25:50;100566.00;;;-13.61;92.46
64835;BME280;51293;59.296;18.006;2022-12-16T00:28:17;100561.97;;;-13.51;92.11
64835;BME280;51293;59.296;18.006;2022-12-16T00:30:43;100565.72;;;-13.39;91.94
64835;BME280;51293;59.296;18.006;2022-12-16T00:33:09;100574.59;;;-13.43;92.24
64835;BME280;51293;59.296;18.006;2022-12-16T00:35:35;100560.56;;;-13.41;92.15
64835;BME280;51293;59.296;18.006;2022-12-16T00:38:00;100562.09;;;-13.37;91.98
64835;BME280;51293;59.296;18.006;2022-12-16T00:40:26;100565.63;;;-13.38;91.91
64835;BME280;51293;59.296;18.006;2022-12-16T00:42:51;100568.97;;;-13.36;92.23
64835;BME280;51293;59.296;18.006;2022-12-16T00:45:17;100575.94;;;-13.36;92.14
64835;BME280;51293;59.296;18.006;2022-12-16T00:47:43;100571.50;;;-13.34;92.51
64835;BME280;51293;59.296;18.006;2022-12-16T00:50:08;100569.56;;;-13.30;92.38
64835;BME280;51293;59.296;18.006;2022-12-16T00:52:35;100567.63;;;-13.27;92.38
64835;BME280;51293;59.296;18.006;2022-12-16T00:55:00;100568.66;;;-13.29;92.03
64835;BME280;51293;59.296;18.006;2022-12-16T00:57:27;100568.78;;;-13.33;92.24
64835;BME280;51293;59.296;18.006;2022-12-16T00:59:52;100573.69;;;-13.26;92.31
64835;BME280;51293;59.296;18.006;2022-12-16T01:02:17;100573.44;;;-13.22;92.55
64835;BME280;51293;59.296;18.006;2022-12-16T01:04:43;100573.16;;;-13.17;92.81
64835;BME280;51293;59.296;18.006;2022-12-16T01:07:08;100579.06;;;-13.14;92.58
64835;BME280;51293;59.296;18.006;2022-12-16T01:09:34;100572.72;;;-13.10;92.83
64835;BME280;51293;59.296;18.006;2022-12-16T01:12:00;100575.25;;;-13.08;92.78
64835;BME280;51293;59.296;18.006;2022-12-16T01:14:25;100571.47;;;-13.02;92.61
64835;BME280;51293;59.296;18.006;2022-12-16T01:16:51;100586.09;;;-13.00;92.36
64835;BME280;51293;59.296;18.006;2022-12-16T01:19:16;100580.97;;;-13.01;92.61
64835;BME280;51293;59.296;18.006;2022-12-16T01:21:41;100578.97;;;-12.96;92.63
64835;BME280;51293;59.296;18.006;2022-12-16T01:24:08;100579.63;;;-12.93;92.41
64835;BME280;51293;59.296;18.006;2022-12-16T01:26:34;100575.09;;;-12.89;92.53
64835;BME280;51293;59.296;18.006;2022-12-16T01:28:59;100571.47;;;-12.87;92.63
64835;BME280;51293;59.296;18.006;2022-12-16T01:31:25;100577.44;;;-12.85;92.43
64835;BME280;51293;59.296;18.006;2022-12-16T01:33:50;100582.00;;;-12.88;92.57
64835;BME280;51293;59.296;18.006;2022-12-16T01:36:15;100591.50;;;-12.87;92.55
64835;BME280;51293;59.296;18.006;2022-12-16T01:38:42;100587.97;;;-12.86;92.48
64835;BME280;51293;59.296;18.006;2022-12-16T01:41:12;100593.06;;;-12.69;91.94
64835;BME280;51293;59.296;18.006;2022-12-16T01:43:39;100601.09;;;-12.72;91.34
64835;BME280;51293;59.296;18.006;2022-12-16T01:53:56;100583.25;;;-12.80;92.65
64835;BME280;51293;59.296;18.006;2022-12-16T01:56:24;100582.81;;;-12.72;92.83
64835;BME280;51293;59.296;18.006;2022-12-16T01:58:51;100579.53;;;-12.76;92.96
64835;BME280;51293;59.296;18.006;2022-12-16T02:01:17;100585.44;;;-12.72;93.24
64835;BME280;51293;59.296;18.006;2022-12-16T02:03:43;100583.47;;;-12.68;93.60
64835;BME280;51293;59.296;18.006;2022-12-16T02:06:08;100585.84;;;-12.64;93.34
64835;BME280;51293;59.296;18.006;2022-12-16T02:08:34;100588.25;;;-12.61;93.24
64835;BME280;51293;59.296;18.006;2022-12-16T02:14:03;100595.75;;;-12.55;93.42
64835;BME280;51293;59.296;18.006;2022-12-16T02:16:42;100599.78;;;-12.49;93.41
64835;BME280;51293;59.296;18.006;2022-12-16T02:35:44;100600.34;;;-12.44;92.46
64835;BME280;51293;59.296;18.006;2022-12-16T02:38:26;100598.47;;;-12.42;92.85
64835;BME280;51293;59.296;18.006;2022-12-16T02:41:04;100600.19;;;-12.41;92.94
64835;BME280;51293;59.296;18.006;2022-12-16T02:43:57;100610.69;;;-12.42;92.96
64835;BME280;51293;59.296;18.006;2022-12-16T02:46:26;100607.25;;;-12.43;92.95
64835;BME280;51293;59.296;18.006;2022-12-16T02:48:53;100614.34;;;-12.45;92.58
64835;BME280;51293;59.296;18.006;2022-12-16T02:51:19;100619.66;;;-12.47;92.13
64835;BME280;51293;59.296;18.006;2022-12-16T02:53:47;100620.66;;;-12.49;92.52
64835;BME280;51293;59.296;18.006;2022-12-16T02:56:30;100621.97;;;-12.42;92.72
64835;BME280;51293;59.296;18.006;2022-12-16T03:01:50;100625.44;;;-12.41;93.26
64835;BME280;51293;59.296;18.006;2022-12-16T03:04:51;100622.56;;;-12.37;93.25
64835;BME280;51293;59.296;18.006;2022-12-16T03:07:16;100629.22;;;-12.31;93.47
64835;BME280;51293;59.296;18.006;2022-12-16T03:09:45;100631.66;;;-12.28;93.84
64835;BME280;51293;59.296;18.006;2022-12-16T03:12:15;100637.59;;;-12.26;94.32
64835;BME280;51293;59.296;18.006;2022-12-16T03:14:44;100636.69;;;-12.25;94.47
64835;BME280;51293;59.296;18.006;2022-12-16T03:17:12;100630.19;;;-12.18;94.36
64835;BME280;51293;59.296;18.006;2022-12-16T03:19:39;100638.50;;;-12.11;95.58
64835;BME280;51293;59.296;18.006;2022-12-16T03:22:11;100632.84;;;-12.04;96.07
64835;BME280;51293;59.296;18.006;2022-12-16T03:24:37;100639.41;;;-11.97;96.45
64835;BME280;51293;59.296;18.006;2022-12-16T03:27:11;100633.53;;;-11.86;97.61
64835;BME280;51293;59.296;18.006;2022-12-16T03:29:53;100637.09;;;-11.73;98.44
64835;BME280;51293;59.296;18.006;2022-12-16T03:32:32;100650.69;;;-11.68;98.78
64835;BME280;51293;59.296;18.006;2022-12-16T03:35:15;100643.81;;;-11.54;99.52
64835;BME280;51293;59.296;18.006;2022-12-16T03:37:45;100652.16;;;-11.48;99.76
64835;BME280;51293;59.296;18.006;2022-12-16T03:40:12;100651.94;;;-11.45;100.00
64835;BME280;51293;59.296;18.006;2022-12-16T03:42:39;100653.72;;;-11.45;99.92
64835;BME280;51293;59.296;18.006;2022-12-16T03:45:07;100655.59;;;-11.47;99.20
64835;BME280;51293;59.296;18.006;2022-12-16T03:47:36;100653.63;;;-11.44;99.60
64835;BME280;51293;59.296;18.006;2022-12-16T03:50:02;100650.66;;;-11.38;100.00
64835;BME280;51293;59.296;18.006;2022-12-16T03:52:27;100655.69;;;-11.35;100.00
64835;BME280;51293;59.296;18.006;2022-12-16T03:54:53;100650.19;;;-11.30;100.00
64835;BME280;51293;59.296;18.006;2022-12-16T03:57:20;100654.50;;;-11.15;100.00
64835;BME280;51293;59.296;18.006;2022-12-16T03:59:45;100651.13;;;-11.17;100.00
64835;BME280;51293;59.296;18.006;2022-12-16T04:02:11;100653.75;;;-11.17;100.00
64835;BME280;51293;59.296;18.006;2022-12-16T04:04:36;100667.19;;;-11.09;100.00
64835;BME280;51293;59.296;18.006;2022-12-16T04:07:01;100662.97;;;-10.97;100.00
64835;BME280;51293;59.296;18.006;2022-12-16T04:09:45;100661.28;;;-10.98;100.00
64835;BME280;51293;59.296;18.006;2022-12-16T04:12:11;100663.53;;;-11.06;100.00
64835;BME280;51293;59.296;18.006;2022-12-16T04:14:55;100659.88;;;-11.03;100.00
64835;BME280;51293;59.296;18.006;2022-12-16T04:17:39;100666.63;;;-10.99;100.00
64835;BME280;51293;59.296;18.006;2022-12-16T04:20:36;100667.72;;;-11.03;100.00
64835;BME280;51293;59.296;18.006;2022-12-16T04:23:22;100680.44;;;-10.97;100.00
64835;BME280;51293;59.296;18.006;2022-12-16T04:26:07;100677.09;;;-10.99;100.00
64835;BME280;51293;59.296;18.006;2022-12-16T04:28:33;100677.34;;;-11.04;100.00
64835;BME280;51293;59.296;18.006;2022-12-16T04:30:58;100680.91;;;-11.05;100.00
64835;BME280;51293;59.296;18.006;2022-12-16T04:33:23;100687.91;;;-11.06;100.00
64835;BME280;51293;59.296;18.006;2022-12-16T04:36:07;100697.34;;;-11.03;100.00
64835;BME280;51293;59.296;18.006;2022-12-16T04:38:51;100705.41;;;-11.06;100.00
64835;BME280;51293;59.296;18.006;2022-12-16T04:41:35;100711.56;;;-11.07;100.00
64835;BME280;51293;59.296;18.006;2022-12-16T04:44:19;100713.25;;;-11.06;100.00
64835;BME280;51293;59.296;18.006;2022-12-16T04:47:03;100707.16;;;-11.07;100.00
64835;BME280;51293;59.296;18.006;2022-12-16T04:49:47;100712.56;;;-11.10;100.00
64835;BME280;51293;59.296;18.006;2022-12-16T04:52:31;100715.66;;;-11.03;100.00
64835;BME280;51293;59.296;18.006;2022-12-16T04:55:15;100713.25;;;-11.06;100.00
64835;BME280;51293;59.296;18.006;2022-12-16T04:57:59;100716.13;;;-11.11;100.00
64835;BME280;51293;59.296;18.006;2022-12-16T05:00:45;100721.66;;;-11.15;100.00
64835;BME280;51293;59.296;18.006;2022-12-16T05:03:29;100727.41;;;-11.10;100.00
64835;BME280;51293;59.296;18.006;2022-12-16T05:06:14;100725.75;;;-11.11;100.00
64835;BME280;51293;59.296;18.006;2022-12-16T05:08:59;100724.91;;;-11.12;100.00
64835;BME280;51293;59.296;18.006;2022-12-16T05:11:42;100725.84;;;-11.13;100.00
64835;BME280;51293;59.296;18.006;2022-12-16T05:14:27;100733.94;;;-11.17;100.00
64835;BME280;51293;59.296;18.006;2022-12-16T05:17:11;100739.38;;;-11.20;100.00
64835;BME280;51293;59.296;18.006;2022-12-16T05:19:55;100734.88;;;-11.18;100.00
64835;BME280;51293;59.296;18.006;2022-12-16T05:22:39;100734.16;;;-11.06;100.00
64835;BME280;51293;59.296;18.006;2022-12-16T05:25:23;100736.09;;;-11.10;100.00
64835;BME280;51293;59.296;18.006;2022-12-16T05:28:07;100734.34;;;-11.09;100.00
64835;BME280;51293;59.296;18.006;2022-12-16T05:30:51;100729.97;;;-11.09;100.00
64835;BME280;51293;59.296;18.006;2022-12-16T05:33:35;100736.88;;;-11.08;100.00
64835;BME280;51293;59.296;18.006;2022-12-16T05:36:19;100730.63;;;-11.05;100.00
64835;BME280;51293;59.296;18.006;2022-12-16T05:39:03;100733.44;;;-11.08;100.00
64835;BME280;51293;59.296;18.006;2022-12-16T05:41:47;100736.88;;;-11.08;100.00
64835;BME280;51293;59.296;18.006;2022-12-16T05:44:31;100747.44;;;-10.95;100.00
64835;BME280;51293;59.296;18.006;2022-12-16T05:47:14;100747.53;;;-10.96;100.00
64835;BME280;51293;59.296;18.006;2022-12-16T05:49:59;100751.63;;;-10.92;100.00
64835;BME280;51293;59.296;18.006;2022-12-16T05:52:49;100756.97;;;-10.80;100.00
64835;BME280;51293;59.296;18.006;2022-12-16T05:55:34;100770.31;;;-10.84;100.00
64835;BME280;51293;59.296;18.006;2022-12-16T05:58:17;100772.09;;;-10.85;100.00
64835;BME280;51293;59.296;18.006;2022-12-16T06:01:03;100773.81;;;-10.84;100.00
64835;BME280;51293;59.296;18.006;2022-12-16T06:03:47;100775.38;;;-10.81;100.00
64835;BME280;51293;59.296;18.006;2022-12-16T06:06:31;100775.56;;;-10.84;100.00
64835;BME280;51293;59.296;18.006;2022-12-16T06:09:15;100780.53;;;-10.80;100.00
64835;BME280;51293;59.296;18.006;2022-12-16T06:11:58;100783.34;;;-10.83;100.00
64835;BME280;51293;59.296;18.006;2022-12-16T06:14:42;100792.19;;;-10.85;100.00
64835;BME280;51293;59.296;18.006;2022-12-16T06:17:26;100797.34;;;-10.84;100.00
64835;BME280;51293;59.296;18.006;2022-12-16T06:20:10;100810.97;;;-10.93;100.00
64835;BME280;51293;59.296;18.006;2022-12-16T06:22:54;100811.91;;;-10.94;100.00
64835;BME280;51293;59.296;18.006;2022-12-16T06:25:39;100820.13;;;-11.00;100.00
64835;BME280;51293;59.296;18.006;2022-12-16T06:28:23;100821.97;;;-11.02;100.00
64835;BME280;51293;59.296;18.006;2022-12-16T06:31:08;100821.97;;;-11.02;100.00
64835;BME280;51293;59.296;18.006;2022-12-16T06:33:52;100830.50;;;-10.98;100.00
64835;BME280;51293;59.296;18.006;2022-12-16T06:36:36;100834.13;;;-11.01;100.00
64835;BME280;51293;59.296;18.006;2022-12-16T06:39:20;100837.47;;;-11.13;100.00
64835;BME280;51293;59.296;18.006;2022-12-16T06:42:04;100842.06;;;-11.17;100.00
64835;BME280;51293;59.296;18.006;2022-12-16T06:44:50;100852.84;;;-11.23;100.00
64835;BME280;51293;59.296;18.006;2022-12-16T06:47:34;100851.53;;;-11.30;100.00
64835;BME280;51293;59.296;18.006;2022-12-16T06:50:18;100864.69;;;-11.31;100.00
64835;BME280;51293;59.296;18.006;2022-12-16T06:53:02;100866.53;;;-11.34;100.00
64835;BME280;51293;59.296;18.006;2022-12-16T06:55:46;100875.50;;;-11.38;100.00
64835;BME280;51293;59.296;18.006;2022-12-16T06:58:30;100887.81;;;-11.40;100.00
64835;BME280;51293;59.296;18.006;2022-12-16T07:01:14;100901.97;;;-11.44;100.00
64835;BME280;51293;59.296;18.006;2022-12-16T07:03:58;100909.06;;;-11.46;100.00
64835;BME280;51293;59.296;18.006;2022-12-16T07:06:42;100911.78;;;-11.47;100.00
64835;BME280;51293;59.296;18.006;2022-12-16T07:09:26;100911.03;;;-11.49;100.00
64835;BME280;51293;59.296;18.006;2022-12-16T07:12:10;100921.91;;;-11.41;100.00
64835;BME280;51293;59.296;18.006;2022-12-16T07:14:54;100917.13;;;-11.35;100.00
64835;BME280;51293;59.296;18.006;2022-12-16T07:17:43;100935.19;;;-11.30;100.00
64835;BME280;51293;59.296;18.006;2022-12-16T07:20:27;100937.47;;;-11.24;100.00
64835;BME280;51293;59.296;18.006;2022-12-16T07:23:11;100939.41;;;-11.27;100.00
64835;BME280;51293;59.296;18.006;2022-12-16T07:25:55;100941.28;;;-11.29;100.00
64835;BME280;51293;59.296;18.006;2022-12-16T07:28:39;100941.09;;;-11.26;100.00
64835;BME280;51293;59.296;18.006;2022-12-16T07:31:23;100945.31;;;-11.24;100.00
64835;BME280;51293;59.296;18.006;2022-12-16T07:34:07;100947.00;;;-11.23;100.00
64835;BME280;51293;59.296;18.006;2022-12-16T07:36:51;100943.47;;;-11.22;100.00
64835;BME280;51293;59.296;18.006;2022-12-16T07:39:35;100954.94;;;-11.24;100.00
64835;BME280;51293;59.296;18.006;2022-12-16T07:42:19;100950.03;;;-11.30;100.00
64835;BME280;51293;59.296;18.006;2022-12-16T07:45:04;100940.53;;;-11.31;100.00
64835;BME280;51293;59.296;18.006;2022-12-16T07:47:49;100949.44;;;-11.36;100.00
64835;BME280;51293;59.296;18.006;2022-12-16T07:50:35;100954.53;;;-11.32;100.00
64835;BME280;51293;59.296;18.006;2022-12-16T07:53:19;100960.75;;;-11.35;100.00
64835;BME280;51293;59.296;18.006;2022-12-16T07:56:04;100960.00;;;-11.37;100.00
64835;BME280;51293;59.296;18.006;2022-12-16T07:58:47;100959.16;;;-11.38;100.00
64835;BME280;51293;59.296;18.006;2022-12-16T08:01:31;100955.59;;;-11.37;100.00
64835;BME280;51293;59.296;18.006;2022-12-16T08:04:15;100965.75;;;-11.30;100.00
64835;BME280;51293;59.296;18.006;2022-12-16T08:06:59;100967.94;;;-11.39;100.00
64835;BME280;51293;59.296;18.006;2022-12-16T08:09:43;100976.84;;;-11.43;100.00
64835;BME280;51293;59.296;18.006;2022-12-16T08:12:27;100967.19;;;-11.41;100.00
64835;BME280;51293;59.296;18.006;2022-12-16T08:15:31;100970.03;;;-11.29;100.00
64835;BME280;51293;59.296;18.006;2022-12-16T08:18:15;100975.50;;;-11.34;100.00
64835;BME280;51293;59.296;18.006;2022-12-16T08:20:59;100970.22;;;-11.32;100.00
64835;BME280;51293;59.296;18.006;2022-12-16T08:23:43;100979.66;;;-11.30;100.00
64835;BME280;51293;59.296;18.006;2022-12-16T08:26:27;100987.81;;;-11.20;100.00
64835;BME280;51293;59.296;18.006;2022-12-16T08:29:11;100991.78;;;-11.13;100.00
64835;BME280;51293;59.296;18.006;2022-12-16T08:31:55;101007.31;;;-11.10;100.00
64835;BME280;51293;59.296;18.006;2022-12-16T08:34:39;101007.47;;;-11.13;100.00
64835;BME280;51293;59.296;18.006;2022-12-16T08:37:23;101001.13;;;-11.09;100.00
64835;BME280;51293;59.296;18.006;2022-12-16T08:40:07;101009.59;;;-11.04;100.00
64835;BME280;51293;59.296;18.006;2022-12-16T08:42:51;101012.38;;;-11.07;100.00
64835;BME280;51293;59.296;18.006;2022-12-16T08:45:35;101024.25;;;-11.01;100.00
64835;BME280;51293;59.296;18.006;2022-12-16T08:48:18;101026.81;;;-11.00;100.00
64835;BME280;51293;59.296;18.006;2022-12-16T08:51:04;101024.59;;;-10.92;100.00
64835;BME280;51293;59.296;18.006;2022-12-16T08:53:49;101029.22;;;-10.81;100.00
64835;BME280;51293;59.296;18.006;2022-12-16T08:56:33;101029.97;;;-10.79;100.00
64835;BME280;51293;59.296;18.006;2022-12-16T08:59:17;101016.66;;;-10.74;100.00
64835;BME280;51293;59.296;18.006;2022-12-16T09:02:01;101021.34;;;-10.65;100.00
64835;BME280;51293;59.296;18.006;2022-12-16T09:04:45;101011.00;;;-10.53;100.00
64835;BME280;51293;59.296;18.006;2022-12-16T09:07:29;101012.63;;;-10.36;100.00
64835;BME280;51293;59.296;18.006;2022-12-16T09:10:13;101005.34;;;-10.31;99.58
64835;BME280;51293;59.296;18.006;2022-12-16T09:13:14;101018.94;;;-10.24;98.93
64835;BME280;51293;59.296;18.006;2022-12-16T09:15:59;101021.81;;;-10.29;98.36
64835;BME280;51293;59.296;18.006;2022-12-16T09:18:43;101039.06;;;-10.25;98.33
64835;BME280;51293;59.296;18.006;2022-12-16T09:21:27;101037.28;;;-10.24;98.12
64835;BME280;51293;59.296;18.006;2022-12-16T09:24:11;101035.56;;;-10.39;98.01
64835;BME280;51293;59.296;18.006;2022-12-16T09:26:55;101040.88;;;-10.41;98.51
64835;BME280;51293;59.296;18.006;2022-12-16T09:29:39;101044.25;;;-10.39;98.40
64835;BME280;51293;59.296;18.006;2022-12-16T09:32:23;101048.44;;;-10.36;98.63
64835;BME280;51293;59.296;18.006;2022-12-16T09:35:07;101052.28;;;-10.42;98.65
64835;BME280;51293;59.296;18.006;2022-12-16T09:37:51;101051.16;;;-10.38;98.66
64835;BME280;51293;59.296;18.006;2022-12-16T09:40:39;101042.28;;;-10.35;98.59
64835;BME280;51293;59.296;18.006;2022-12-16T09:43:38;101044.34;;;-10.40;98.67
64835;BME280;51293;59.296;18.006;2022-12-16T09:46:38;101043.06;;;-10.33;98.35
64835;BME280;51293;59.296;18.006;2022-12-16T09:49:51;101046.88;;;-10.39;98.76
64835;BME280;51293;59.296;18.006;2022-12-16T09:52:40;101042.53;;;-10.24;98.85
64835;BME280;51293;59.296;18.006;2022-12-16T09:55:29;101054.44;;;-10.20;98.92
64835;BME280;51293;59.296;18.006;2022-12-16T09:58:14;101050.19;;;-10.07;98.56
64835;BME280;51293;59.296;18.006;2022-12-16T10:01:00;101053.28;;;-9.86;97.94
64835;BME280;51293;59.296;18.006;2022-12-16T10:03:44;101061.19;;;-9.57;97.23
64835;BME280;51293;59.296;18.006;2022-12-16T10:06:37;101051.63;;;-9.44;95.66
64835;BME280;51293;59.296;18.006;2022-12-16T10:18:48;101066.16;;;-8.83;90.33
64835;BME280;51293;59.296;18.006;2022-12-16T10:24:57;101083.66;;;-9.25;88.23
64835;BME280;51293;59.296;18.006;2022-12-16T10:27:46;101075.78;;;-9.53;87.55
64835;BME280;51293;59.296;18.006;2022-12-16T10:30:32;101064.94;;;-9.76;88.13
64835;BME280;51293;59.296;18.006;2022-12-16T10:33:18;101071.00;;;-9.89;88.65
64835;BME280;51293;59.296;18.006;2022-12-16T10:36:03;101063.84;;;-10.02;89.42
64835;BME280;51293;59.296;18.006;2022-12-16T10:38:51;101062.22;;;-10.19;90.54
64835;BME280;51293;59.296;18.006;2022-12-16T10:41:42;101073.09;;;-10.25;91.71
64835;BME280;51293;59.296;18.006;2022-12-16T10:44:42;101080.28;;;-10.28;92.71
64835;BME280;51293;59.296;18.006;2022-12-16T10:47:30;101078.69;;;-10.31;93.35
64835;BME280;51293;59.296;18.006;2022-12-16T10:50:14;101084.34;;;-10.08;93.24
64835;BME280;51293;59.296;18.006;2022-12-16T10:53:04;101090.97;;;-10.03;93.43
64835;BME280;51293;59.296;18.006;2022-12-16T10:58:55;101095.44;;;-9.89;93.73
64835;BME280;51293;59.296;18.006;2022-12-16T11:01:41;101093.69;;;-9.74;93.24
64835;BME280;51293;59.296;18.006;2022-12-16T11:04:38;101100.66;;;-9.89;93.44
64835;BME280;51293;59.296;18.006;2022-12-16T11:16:13;101102.75;;;-10.10;94.18
64835;BME280;51293;59.296;18.006;2022-12-16T11:18:58;101120.53;;;-10.15;94.14
64835;BME280;51293;59.296;18.006;2022-12-16T11:21:42;101118.25;;;-10.21;94.14
64835;BME280;51293;59.296;18.006;2022-12-16T11:24:27;101119.94;;;-10.20;93.40
64835;BME280;51293;59.296;18.006;2022-12-16T11:27:14;101122.78;;;-10.23;94.04
64835;BME280;51293;59.296;18.006;2022-12-16T11:30:25;101127.47;;;-10.14;93.84
64835;BME280;51293;59.296;18.006;2022-12-16T11:33:17;101126.94;;;-10.35;93.03
64835;BME280;51293;59.296;18.006;2022-12-16T11:36:17;101135.31;;;-10.44;92.65
64835;BME280;51293;59.296;18.006;2022-12-16T11:39:03;101136.94;;;-10.57;93.78
64835;BME280;51293;59.296;18.006;2022-12-16T11:41:51;101142.50;;;-10.63;93.90
64835;BME280;51293;59.296;18.006;2022-12-16T11:44:52;101146.41;;;-10.70;95.10
64835;BME280;51293;59.296;18.006;2022-12-16T11:47:54;101148.09;;;-10.69;95.15
64835;BME280;51293;59.296;18.006;2022-12-16T11:50:46;101140.97;;;-10.67;95.02
64835;BME280;51293;59.296;18.006;2022-12-16T11:53:37;101140.75;;;-10.63;95.33
64835;BME280;51293;59.296;18.006;2022-12-16T11:56:25;101141.66;;;-10.64;95.05
64835;BME280;51293;59.296;18.006;2022-12-16T11:59:26;101150.97;;;-10.58;94.60
64835;BME280;51293;59.296;18.006;2022-12-16T12:02:21;101151.22;;;-10.63;94.29
64835;BME280;51293;59.296;18.006;2022-12-16T12:05:13;101147.84;;;-10.65;94.13
64835;BME280;51293;59.296;18.006;2022-12-16T12:08:13;101145.47;;;-10.69;94.85
64835;BME280;51293;59.296;18.006;2022-12-16T12:11:15;101147.66;;;-10.62;94.59
64835;BME280;51293;59.296;18.006;2022-12-16T12:14:31;101159.50;;;-10.55;94.79
64835;BME280;51293;59.296;18.006;2022-12-16T12:17:29;101156.63;;;-10.50;94.55
64835;BME280;51293;59.296;18.006;2022-12-16T12:26:43;101155.19;;;-10.40;93.33
64835;BME280;51293;59.296;18.006;2022-12-16T12:38:26;101174.53;;;-10.58;94.10
64835;BME280;51293;59.296;18.006;2022-12-16T12:46:57;101171.22;;;-10.62;93.99
64835;BME280;51293;59.296;18.006;2022-12-16T12:57:07;101175.88;;;-10.83;94.70
64835;BME280;51293;59.296;18.006;2022-12-16T13:02:29;101164.47;;;-10.82;94.60
64835;BME280;51293;59.296;18.006;2022-12-16T13:05:17;101164.88;;;-10.89;95.02
64835;BME280;51293;59.296;18.006;2022-12-16T13:11:22;101170.63;;;-10.83;95.35
64835;BME280;51293;59.296;18.006;2022-12-16T13:17:19;101181.00;;;-10.97;95.64
64835;BME280;51293;59.296;18.006;2022-12-16T13:20:32;101183.00;;;-11.02;95.68
64835;BME280;51293;59.296;18.006;2022-12-16T13:26:13;101191.56;;;-10.98;95.75
64835;BME280;51293;59.296;18.006;2022-12-16T13:32:16;101191.03;;;-11.05;96.49
64835;BME280;51293;59.296;18.006;2022-12-16T13:35:04;101185.19;;;-11.10;96.57
64835;BME280;51293;59.296;18.006;2022-12-16T13:37:53;101178.19;;;-11.10;96.97
64835;BME280;51293;59.296;18.006;2022-12-16T13:40:57;101171.44;;;-11.14;97.16
64835;BME280;51293;59.296;18.006;2022-12-16T13:43:50;101183.66;;;-11.14;97.66
64835;BME280;51293;59.296;18.006;2022-12-16T13:47:01;101187.97;;;-11.13;97.83
64835;BME280;51293;59.296;18.006;2022-12-16T13:49:47;101202.72;;;-11.12;98.05
64835;BME280;51293;59.296;18.006;2022-12-16T13:58:40;101207.47;;;-11.03;99.58
64835;BME280;51293;59.296;18.006;2022-12-16T14:01:50;101207.38;;;-11.01;99.69
64835;BME280;51293;59.296;18.006;2022-12-16T14:04:50;101204.09;;;-11.05;99.99
64835;BME280;51293;59.296;18.006;2022-12-16T14:07:38;101207.56;;;-11.05;99.94
64835;BME280;51293;59.296;18.006;2022-12-16T14:10:28;101213.47;;;-11.01;99.93
64835;BME280;51293;59.296;18.006;2022-12-16T14:13:39;101221.50;;;-11.04;100.00
64835;BME280;51293;59.296;18.006;2022-12-16T14:25:22;101208.84;;;-10.96;100.00
64835;BME280;51293;59.296;18.006;2022-12-16T14:31:21;101219.66;;;-10.86;100.00
64835;BME280;51293;59.296;18.006;2022-12-16T14:34:14;101229.78;;;-10.96;100.00
64835;BME280;51293;59.296;18.006;2022-12-16T14:36:59;101222.28;;;-10.86;100.00
64835;BME280;51293;59.296;18.006;2022-12-16T14:39:47;101230.03;;;-10.85;100.00
64835;BME280;51293;59.296;18.006;2022-12-16T14:42:32;101226.88;;;-10.74;100.00
64835;BME280;51293;59.296;18.006;2022-12-16T14:54:34;101238.34;;;-10.77;100.00
64835;BME280;51293;59.296;18.006;2022-12-16T14:57:22;101242.66;;;-10.75;100.00
64835;BME280;51293;59.296;18.006;2022-12-16T15:02:53;101245.03;;;-10.71;100.00
64835;BME280;51293;59.296;18.006;2022-12-16T15:05:39;101249.19;;;-10.67;100.00
64835;BME280;51293;59.296;18.006;2022-12-16T15:08:25;101245.47;;;-10.63;100.00
64835;BME280;51293;59.296;18.006;2022-12-16T15:11:11;101247.00;;;-10.59;100.00
64835;BME280;51293;59.296;18.006;2022-12-16T15:13:58;101250.94;;;-10.52;100.00
64835;BME280;51293;59.296;18.006;2022-12-16T15:16:45;101253.16;;;-10.44;100.00
64835;BME280;51293;59.296;18.006;2022-12-16T15:19:38;101260.44;;;-10.49;100.00
64835;BME280;51293;59.296;18.006;2022-12-16T15:22:24;101264.13;;;-10.53;100.00
64835;BME280;51293;59.296;18.006;2022-12-16T15:25:21;101270.47;;;-10.57;100.00
64835;BME280;51293;59.296;18.006;2022-12-16T15:28:21;101267.84;;;-10.57;100.00
64835;BME280;51293;59.296;18.006;2022-12-16T15:31:19;101282.75;;;-10.42;100.00
64835;BME280;51293;59.296;18.006;2022-12-16T15:34:37;101278.06;;;-10.53;100.00
64835;BME280;51293;59.296;18.006;2022-12-16T15:37:35;101287.56;;;-10.50;100.00
64835;BME280;51293;59.296;18.006;2022-12-16T15:43:30;101294.28;;;-10.46;100.00
64835;BME280;51293;59.296;18.006;2022-12-16T15:46:22;101300.16;;;-10.41;100.00
64835;BME280;51293;59.296;18.006;2022-12-16T15:52:01;101311.19;;;-10.52;100.00
64835;BME280;51293;59.296;18.006;2022-12-16T15:54:49;101297.84;;;-10.47;100.00